Gustavus, Alaska
Current Conditions -  °F | °C
As of 7:36 AM on Sunday 21 Dec 2014 (Local Time) from PAGS Reporting Station
Overcast Overcast  
Wind Chill: 39°   Ceiling: 2700
Heat Index: 39°   Visibility: 10mi
Dew Point: 36°   Wind: 0mph
Humidity: 87%   Direction: NA
Pressure: 29.3"   Gusts: NA
Location:  58.41°N, 135.74°W
Report Text: PAGS 211636Z AUTO 00000KT 10SM OVC027 04/02 A2930 RMK AO1 PNO
Loading
Personal Weather Stations






























Interactive Weather Map New forecast layout! Learn more

10-Day Weather Forecast

Advertisements
Track Severe Weather on mobile